sensor_id;sensor_type;location;lat;lon;timestamp;P1;durP1;ratioP1;P2;durP2;ratioP2
30080;SDS011;16902;50.816;12.828;2023-07-31T00:01:33;6.20;;;6.00;;
30080;SDS011;16902;50.816;12.828;2023-07-31T00:06:35;6.15;;;5.95;;
30080;SDS011;16902;50.816;12.828;2023-07-31T00:11:37;6.32;;;5.80;;
30080;SDS011;16902;50.816;12.828;2023-07-31T00:16:39;6.35;;;6.05;;
30080;SDS011;16902;50.816;12.828;2023-07-31T00:21:41;6.05;;;5.85;;
30080;SDS011;16902;50.816;12.828;2023-07-31T00:26:43;6.88;;;6.57;;
30080;SDS011;16902;50.816;12.828;2023-07-31T00:31:45;6.40;;;6.20;;
30080;SDS011;16902;50.816;12.828;2023-07-31T00:36:46;6.28;;;6.03;;
30080;SDS011;16902;50.816;12.828;2023-07-31T00:41:50;5.50;;;5.30;;
30080;SDS011;16902;50.816;12.828;2023-07-31T00:46:52;5.68;;;5.47;;
30080;SDS011;16902;50.816;12.828;2023-07-31T00:51:55;4.85;;;4.45;;
30080;SDS011;16902;50.816;12.828;2023-07-31T00:56:59;5.63;;;5.43;;
30080;SDS011;16902;50.816;12.828;2023-07-31T01:02:02;6.07;;;5.78;;
30080;SDS011;16902;50.816;12.828;2023-07-31T01:07:11;6.30;;;6.05;;
30080;SDS011;16902;50.816;12.828;2023-07-31T01:12:20;7.88;;;7.57;;
30080;SDS011;16902;50.816;12.828;2023-07-31T01:17:25;8.10;;;7.80;;
30080;SDS011;16902;50.816;12.828;2023-07-31T01:27:50;8.80;;;8.50;;
30080;SDS011;16902;50.816;12.828;2023-07-31T01:33:05;10.10;;;9.68;;
30080;SDS011;16902;50.816;12.828;2023-07-31T01:38:09;10.05;;;9.63;;
30080;SDS011;16902;50.816;12.828;2023-07-31T01:43:11;10.23;;;9.80;;
30080;SDS011;16902;50.816;12.828;2023-07-31T01:48:12;10.48;;;10.02;;
30080;SDS011;16902;50.816;12.828;2023-07-31T01:53:15;9.15;;;8.85;;
30080;SDS011;16902;50.816;12.828;2023-07-31T01:58:17;10.02;;;9.63;;
30080;SDS011;16902;50.816;12.828;2023-07-31T02:03:18;9.13;;;8.75;;
30080;SDS011;16902;50.816;12.828;2023-07-31T02:08:20;8.73;;;8.43;;
30080;SDS011;16902;50.816;12.828;2023-07-31T02:13:22;8.00;;;7.70;;
30080;SDS011;16902;50.816;12.828;2023-07-31T02:18:24;8.13;;;7.82;;
30080;SDS011;16902;50.816;12.828;2023-07-31T02:23:25;7.13;;;6.90;;
30080;SDS011;16902;50.816;12.828;2023-07-31T02:28:27;6.80;;;6.60;;
30080;SDS011;16902;50.816;12.828;2023-07-31T02:33:30;5.78;;;5.45;;
30080;SDS011;16902;50.816;12.828;2023-07-31T02:38:32;5.80;;;5.60;;
30080;SDS011;16902;50.816;12.828;2023-07-31T02:43:34;6.30;;;6.00;;
30080;SDS011;16902;50.816;12.828;2023-07-31T02:48:35;5.57;;;5.38;;
30080;SDS011;16902;50.816;12.828;2023-07-31T02:53:37;5.55;;;5.32;;
30080;SDS011;16902;50.816;12.828;2023-07-31T02:58:39;5.18;;;4.97;;
30080;SDS011;16902;50.816;12.828;2023-07-31T03:03:41;4.85;;;4.65;;
30080;SDS011;16902;50.816;12.828;2023-07-31T03:08:45;4.90;;;4.78;;
30080;SDS011;16902;50.816;12.828;2023-07-31T03:13:49;5.40;;;4.90;;
30080;SDS011;16902;50.816;12.828;2023-07-31T03:18:50;5.13;;;4.93;;
30080;SDS011;16902;50.816;12.828;2023-07-31T03:23:52;4.40;;;4.20;;
30080;SDS011;16902;50.816;12.828;2023-07-31T03:28:54;4.50;;;4.32;;
30080;SDS011;16902;50.816;12.828;2023-07-31T03:33:55;4.93;;;4.63;;
30080;SDS011;16902;50.816;12.828;2023-07-31T03:38:57;3.95;;;3.85;;
30080;SDS011;16902;50.816;12.828;2023-07-31T03:43:59;4.05;;;3.95;;
30080;SDS011;16902;50.816;12.828;2023-07-31T03:49:00;4.25;;;4.05;;
30080;SDS011;16902;50.816;12.828;2023-07-31T03:54:02;5.03;;;4.70;;
30080;SDS011;16902;50.816;12.828;2023-07-31T03:59:04;4.82;;;4.43;;
30080;SDS011;16902;50.816;12.828;2023-07-31T04:04:05;4.72;;;4.53;;
30080;SDS011;16902;50.816;12.828;2023-07-31T04:09:07;4.68;;;4.40;;
30080;SDS011;16902;50.816;12.828;2023-07-31T04:14:09;4.82;;;4.63;;
30080;SDS011;16902;50.816;12.828;2023-07-31T04:19:10;4.70;;;4.50;;
30080;SDS011;16902;50.816;12.828;2023-07-31T04:24:12;4.45;;;4.35;;
30080;SDS011;16902;50.816;12.828;2023-07-31T04:29:14;4.80;;;4.60;;
30080;SDS011;16902;50.816;12.828;2023-07-31T04:34:17;4.85;;;4.60;;
30080;SDS011;16902;50.816;12.828;2023-07-31T04:39:18;4.85;;;4.65;;
30080;SDS011;16902;50.816;12.828;2023-07-31T04:44:20;4.82;;;4.63;;
30080;SDS011;16902;50.816;12.828;2023-07-31T04:49:22;4.70;;;4.50;;
30080;SDS011;16902;50.816;12.828;2023-07-31T04:54:23;5.28;;;5.07;;
30080;SDS011;16902;50.816;12.828;2023-07-31T04:59:27;4.88;;;4.68;;
30080;SDS011;16902;50.816;12.828;2023-07-31T05:04:29;5.55;;;5.35;;
30080;SDS011;16902;50.816;12.828;2023-07-31T05:09:31;5.53;;;5.32;;
30080;SDS011;16902;50.816;12.828;2023-07-31T05:14:33;6.50;;;6.10;;
30080;SDS011;16902;50.816;12.828;2023-07-31T05:19:34;5.43;;;5.13;;
30080;SDS011;16902;50.816;12.828;2023-07-31T05:24:36;6.15;;;5.50;;
30080;SDS011;16902;50.816;12.828;2023-07-31T05:29:38;6.28;;;5.93;;
30080;SDS011;16902;50.816;12.828;2023-07-31T05:34:39;6.30;;;6.03;;
30080;SDS011;16902;50.816;12.828;2023-07-31T05:39:41;6.70;;;6.40;;
30080;SDS011;16902;50.816;12.828;2023-07-31T05:44:43;6.05;;;5.80;;
30080;SDS011;16902;50.816;12.828;2023-07-31T05:49:45;6.32;;;6.13;;
30080;SDS011;16902;50.816;12.828;2023-07-31T05:54:46;6.63;;;6.20;;
30080;SDS011;16902;50.816;12.828;2023-07-31T05:59:48;7.38;;;7.07;;
30080;SDS011;16902;50.816;12.828;2023-07-31T06:04:50;6.57;;;6.38;;
30080;SDS011;16902;50.816;12.828;2023-07-31T06:09:52;7.45;;;7.18;;
30080;SDS011;16902;50.816;12.828;2023-07-31T06:14:56;7.47;;;7.18;;
30080;SDS011;16902;50.816;12.828;2023-07-31T06:19:57;7.80;;;7.50;;
30080;SDS011;16902;50.816;12.828;2023-07-31T06:24:59;8.23;;;7.93;;
30080;SDS011;16902;50.816;12.828;2023-07-31T06:30:01;8.55;;;8.10;;
30080;SDS011;16902;50.816;12.828;2023-07-31T06:35:03;9.00;;;8.60;;
30080;SDS011;16902;50.816;12.828;2023-07-31T06:40:05;8.70;;;8.20;;
30080;SDS011;16902;50.816;12.828;2023-07-31T06:45:10;8.85;;;8.50;;
30080;SDS011;16902;50.816;12.828;2023-07-31T06:50:11;9.07;;;8.77;;
30080;SDS011;16902;50.816;12.828;2023-07-31T06:55:17;9.30;;;8.95;;
30080;SDS011;16902;50.816;12.828;2023-07-31T07:00:21;9.73;;;9.20;;
30080;SDS011;16902;50.816;12.828;2023-07-31T07:05:24;9.70;;;9.40;;
30080;SDS011;16902;50.816;12.828;2023-07-31T07:10:26;10.43;;;9.93;;
30080;SDS011;16902;50.816;12.828;2023-07-31T07:15:27;9.70;;;9.30;;
30080;SDS011;16902;50.816;12.828;2023-07-31T07:20:30;9.38;;;9.00;;
30080;SDS011;16902;50.816;12.828;2023-07-31T07:25:32;10.02;;;9.52;;
30080;SDS011;16902;50.816;12.828;2023-07-31T07:30:33;10.07;;;9.68;;
30080;SDS011;16902;50.816;12.828;2023-07-31T07:35:35;9.93;;;9.52;;
30080;SDS011;16902;50.816;12.828;2023-07-31T07:40:40;9.07;;;8.77;;
30080;SDS011;16902;50.816;12.828;2023-07-31T07:45:42;9.20;;;8.90;;
30080;SDS011;16902;50.816;12.828;2023-07-31T07:50:44;9.73;;;9.32;;
30080;SDS011;16902;50.816;12.828;2023-07-31T07:55:46;10.93;;;10.45;;
30080;SDS011;16902;50.816;12.828;2023-07-31T08:00:48;11.13;;;10.73;;
30080;SDS011;16902;50.816;12.828;2023-07-31T08:05:57;10.85;;;10.45;;
30080;SDS011;16902;50.816;12.828;2023-07-31T08:10:59;10.57;;;10.18;;
30080;SDS011;16902;50.816;12.828;2023-07-31T08:16:03;10.80;;;10.40;;
30080;SDS011;16902;50.816;12.828;2023-07-31T08:21:05;10.73;;;10.32;;
30080;SDS011;16902;50.816;12.828;2023-07-31T08:26:07;11.43;;;10.93;;
30080;SDS011;16902;50.816;12.828;2023-07-31T08:31:09;11.18;;;10.77;;
30080;SDS011;16902;50.816;12.828;2023-07-31T08:36:12;10.50;;;10.10;;
30080;SDS011;16902;50.816;12.828;2023-07-31T08:41:14;11.57;;;11.07;;
30080;SDS011;16902;50.816;12.828;2023-07-31T08:46:18;11.32;;;10.82;;
30080;SDS011;16902;50.816;12.828;2023-07-31T08:51:21;11.60;;;11.10;;
30080;SDS011;16902;50.816;12.828;2023-07-31T08:56:23;11.15;;;10.75;;
30080;SDS011;16902;50.816;12.828;2023-07-31T09:01:27;11.18;;;10.68;;
30080;SDS011;16902;50.816;12.828;2023-07-31T09:06:31;11.48;;;10.98;;
30080;SDS011;16902;50.816;12.828;2023-07-31T09:11:34;11.60;;;11.15;;
30080;SDS011;16902;50.816;12.828;2023-07-31T09:16:36;10.82;;;10.32;;
30080;SDS011;16902;50.816;12.828;2023-07-31T09:21:54;11.45;;;10.95;;
30080;SDS011;16902;50.816;12.828;2023-07-31T09:26:56;11.05;;;10.65;;
30080;SDS011;16902;50.816;12.828;2023-07-31T09:31:59;11.02;;;10.63;;
30080;SDS011;16902;50.816;12.828;2023-07-31T09:37:01;12.20;;;11.70;;
30080;SDS011;16902;50.816;12.828;2023-07-31T09:42:04;12.40;;;11.82;;
30080;SDS011;16902;50.816;12.828;2023-07-31T09:47:06;12.30;;;11.80;;
30080;SDS011;16902;50.816;12.828;2023-07-31T09:52:11;12.43;;;11.93;;
30080;SDS011;16902;50.816;12.828;2023-07-31T09:57:13;12.70;;;12.20;;
30080;SDS011;16902;50.816;12.828;2023-07-31T10:02:22;13.20;;;12.70;;
30080;SDS011;16902;50.816;12.828;2023-07-31T10:07:25;12.90;;;12.40;;
30080;SDS011;16902;50.816;12.828;2023-07-31T10:12:30;13.52;;;13.02;;
30080;SDS011;16902;50.816;12.828;2023-07-31T10:17:33;13.40;;;12.90;;
30080;SDS011;16902;50.816;12.828;2023-07-31T10:22:37;13.23;;;12.73;;
30080;SDS011;16902;50.816;12.828;2023-07-31T10:27:40;13.70;;;13.20;;
30080;SDS011;16902;50.816;12.828;2023-07-31T10:32:41;12.73;;;12.18;;
30080;SDS011;16902;50.816;12.828;2023-07-31T10:37:45;12.18;;;11.68;;
30080;SDS011;16902;50.816;12.828;2023-07-31T10:42:48;12.75;;;12.05;;
30080;SDS011;16902;50.816;12.828;2023-07-31T10:48:00;12.23;;;11.73;;
30080;SDS011;16902;50.816;12.828;2023-07-31T10:53:04;13.40;;;12.82;;
30080;SDS011;16902;50.816;12.828;2023-07-31T10:58:09;13.23;;;12.73;;
30080;SDS011;16902;50.816;12.828;2023-07-31T11:03:15;14.38;;;13.77;;
30080;SDS011;16902;50.816;12.828;2023-07-31T11:08:23;13.77;;;13.27;;
30080;SDS011;16902;50.816;12.828;2023-07-31T11:13:26;13.73;;;13.20;;
30080;SDS011;16902;50.816;12.828;2023-07-31T11:18:29;13.82;;;13.32;;
30080;SDS011;16902;50.816;12.828;2023-07-31T11:23:30;13.93;;;13.32;;
30080;SDS011;16902;50.816;12.828;2023-07-31T11:28:33;13.60;;;13.10;;
30080;SDS011;16902;50.816;12.828;2023-07-31T11:33:36;14.00;;;13.40;;
30080;SDS011;16902;50.816;12.828;2023-07-31T11:38:38;14.23;;;13.63;;
30080;SDS011;16902;50.816;12.828;2023-07-31T11:43:39;14.00;;;13.40;;
30080;SDS011;16902;50.816;12.828;2023-07-31T11:48:41;14.32;;;13.73;;
30080;SDS011;16902;50.816;12.828;2023-07-31T11:53:47;13.82;;;13.27;;
30080;SDS011;16902;50.816;12.828;2023-07-31T11:58:53;13.85;;;13.15;;
30080;SDS011;16902;50.816;12.828;2023-07-31T12:03:58;13.93;;;13.32;;
30080;SDS011;16902;50.816;12.828;2023-07-31T12:09:04;14.00;;;13.40;;
30080;SDS011;16902;50.816;12.828;2023-07-31T12:14:06;14.55;;;13.95;;
30080;SDS011;16902;50.816;12.828;2023-07-31T12:19:09;14.80;;;14.20;;
30080;SDS011;16902;50.816;12.828;2023-07-31T12:24:11;14.27;;;13.68;;
30080;SDS011;16902;50.816;12.828;2023-07-31T12:29:13;13.75;;;13.15;;
30080;SDS011;16902;50.816;12.828;2023-07-31T12:34:19;14.23;;;13.63;;
30080;SDS011;16902;50.816;12.828;2023-07-31T12:39:24;14.70;;;14.10;;
30080;SDS011;16902;50.816;12.828;2023-07-31T12:44:26;14.90;;;14.30;;
30080;SDS011;16902;50.816;12.828;2023-07-31T12:49:31;13.75;;;13.25;;
30080;SDS011;16902;50.816;12.828;2023-07-31T12:54:33;14.25;;;13.65;;
30080;SDS011;16902;50.816;12.828;2023-07-31T12:59:37;14.13;;;13.52;;
30080;SDS011;16902;50.816;12.828;2023-07-31T13:04:38;14.00;;;13.40;;
30080;SDS011;16902;50.816;12.828;2023-07-31T13:09:40;13.90;;;13.40;;
30080;SDS011;16902;50.816;12.828;2023-07-31T13:14:42;14.93;;;14.27;;
30080;SDS011;16902;50.816;12.828;2023-07-31T13:19:44;14.82;;;14.23;;
30080;SDS011;16902;50.816;12.828;2023-07-31T13:24:46;14.20;;;13.60;;
30080;SDS011;16902;50.816;12.828;2023-07-31T13:29:49;14.48;;;13.88;;
30080;SDS011;16902;50.816;12.828;2023-07-31T13:34:51;14.98;;;14.38;;
30080;SDS011;16902;50.816;12.828;2023-07-31T13:39:53;14.48;;;13.88;;
30080;SDS011;16902;50.816;12.828;2023-07-31T13:44:55;14.10;;;13.50;;
30080;SDS011;16902;50.816;12.828;2023-07-31T13:49:57;13.93;;;13.40;;
30080;SDS011;16902;50.816;12.828;2023-07-31T13:54:59;15.32;;;14.68;;
30080;SDS011;16902;50.816;12.828;2023-07-31T14:00:01;14.57;;;13.98;;
30080;SDS011;16902;50.816;12.828;2023-07-31T14:05:05;15.73;;;15.02;;
30080;SDS011;16902;50.816;12.828;2023-07-31T14:10:07;15.32;;;14.73;;
30080;SDS011;16902;50.816;12.828;2023-07-31T14:15:10;14.80;;;14.20;;
30080;SDS011;16902;50.816;12.828;2023-07-31T14:20:12;14.32;;;13.73;;
30080;SDS011;16902;50.816;12.828;2023-07-31T14:25:14;15.00;;;14.40;;
30080;SDS011;16902;50.816;12.828;2023-07-31T14:30:16;14.15;;;13.65;;
30080;SDS011;16902;50.816;12.828;2023-07-31T14:35:19;14.60;;;14.00;;
30080;SDS011;16902;50.816;12.828;2023-07-31T14:40:21;14.40;;;13.80;;
30080;SDS011;16902;50.816;12.828;2023-07-31T14:45:23;14.80;;;14.20;;
30080;SDS011;16902;50.816;12.828;2023-07-31T14:50:25;14.70;;;14.10;;
30080;SDS011;16902;50.816;12.828;2023-07-31T14:55:27;15.10;;;14.50;;
30080;SDS011;16902;50.816;12.828;2023-07-31T15:00:29;15.00;;;14.40;;
30080;SDS011;16902;50.816;12.828;2023-07-31T15:05:31;14.93;;;14.32;;
30080;SDS011;16902;50.816;12.828;2023-07-31T15:10:33;15.10;;;14.50;;
30080;SDS011;16902;50.816;12.828;2023-07-31T15:15:35;14.70;;;14.10;;
30080;SDS011;16902;50.816;12.828;2023-07-31T15:20:37;15.50;;;14.80;;
30080;SDS011;16902;50.816;12.828;2023-07-31T15:25:39;15.50;;;14.70;;
30080;SDS011;16902;50.816;12.828;2023-07-31T15:30:41;15.13;;;14.52;;
30080;SDS011;16902;50.816;12.828;2023-07-31T15:35:43;14.98;;;14.38;;
30080;SDS011;16902;50.816;12.828;2023-07-31T15:40:45;14.25;;;13.75;;
30080;SDS011;16902;50.816;12.828;2023-07-31T15:45:46;14.85;;;14.25;;
30080;SDS011;16902;50.816;12.828;2023-07-31T15:50:48;14.75;;;14.15;;
30080;SDS011;16902;50.816;12.828;2023-07-31T15:55:50;14.23;;;13.63;;
30080;SDS011;16902;50.816;12.828;2023-07-31T16:00:52;14.73;;;14.13;;
30080;SDS011;16902;50.816;12.828;2023-07-31T16:05:54;15.57;;;14.88;;
30080;SDS011;16902;50.816;12.828;2023-07-31T16:10:56;15.07;;;14.45;;
30080;SDS011;16902;50.816;12.828;2023-07-31T16:15:58;14.60;;;14.00;;
30080;SDS011;16902;50.816;12.828;2023-07-31T16:21:00;14.63;;;14.02;;
30080;SDS011;16902;50.816;12.828;2023-07-31T16:26:02;14.20;;;13.60;;
30080;SDS011;16902;50.816;12.828;2023-07-31T16:31:04;14.93;;;14.23;;
30080;SDS011;16902;50.816;12.828;2023-07-31T16:36:07;13.93;;;13.43;;
30080;SDS011;16902;50.816;12.828;2023-07-31T16:41:08;14.00;;;13.32;;
30080;SDS011;16902;50.816;12.828;2023-07-31T16:46:10;14.73;;;14.13;;
30080;SDS011;16902;50.816;12.828;2023-07-31T16:51:12;14.38;;;13.77;;
30080;SDS011;16902;50.816;12.828;2023-07-31T16:56:15;14.68;;;14.07;;
30080;SDS011;16902;50.816;12.828;2023-07-31T17:01:17;15.20;;;14.50;;
30080;SDS011;16902;50.816;12.828;2023-07-31T17:06:19;15.02;;;14.43;;
30080;SDS011;16902;50.816;12.828;2023-07-31T17:11:21;14.52;;;13.93;;
30080;SDS011;16902;50.816;12.828;2023-07-31T17:16:23;15.20;;;14.50;;
30080;SDS011;16902;50.816;12.828;2023-07-31T17:21:26;14.55;;;13.80;;
30080;SDS011;16902;50.816;12.828;2023-07-31T17:26:28;14.23;;;13.63;;
30080;SDS011;16902;50.816;12.828;2023-07-31T17:31:30;14.70;;;14.07;;
30080;SDS011;16902;50.816;12.828;2023-07-31T17:36:32;14.63;;;14.02;;
30080;SDS011;16902;50.816;12.828;2023-07-31T17:41:34;14.55;;;13.95;;
30080;SDS011;16902;50.816;12.828;2023-07-31T17:46:36;14.25;;;13.55;;
30080;SDS011;16902;50.816;12.828;2023-07-31T17:51:39;14.32;;;13.73;;
30080;SDS011;16902;50.816;12.828;2023-07-31T17:56:41;14.93;;;14.32;;
30080;SDS011;16902;50.816;12.828;2023-07-31T18:01:43;14.43;;;13.82;;
30080;SDS011;16902;50.816;12.828;2023-07-31T18:06:45;14.60;;;14.00;;
30080;SDS011;16902;50.816;12.828;2023-07-31T18:11:47;14.07;;;13.48;;
30080;SDS011;16902;50.816;12.828;2023-07-31T18:16:49;13.95;;;13.45;;
30080;SDS011;16902;50.816;12.828;2023-07-31T18:21:51;14.23;;;13.63;;
30080;SDS011;16902;50.816;12.828;2023-07-31T18:26:53;13.90;;;13.30;;
30080;SDS011;16902;50.816;12.828;2023-07-31T18:31:55;14.43;;;13.73;;
30080;SDS011;16902;50.816;12.828;2023-07-31T18:36:57;13.82;;;13.23;;
30080;SDS011;16902;50.816;12.828;2023-07-31T18:41:59;13.15;;;12.65;;
30080;SDS011;16902;50.816;12.828;2023-07-31T18:47:01;13.50;;;12.90;;
30080;SDS011;16902;50.816;12.828;2023-07-31T18:52:03;14.05;;;13.38;;
30080;SDS011;16902;50.816;12.828;2023-07-31T18:57:06;14.23;;;13.63;;
30080;SDS011;16902;50.816;12.828;2023-07-31T19:02:08;13.73;;;13.13;;
30080;SDS011;16902;50.816;12.828;2023-07-31T19:07:10;14.05;;;13.45;;
30080;SDS011;16902;50.816;12.828;2023-07-31T19:12:11;13.80;;;13.20;;
30080;SDS011;16902;50.816;12.828;2023-07-31T19:17:14;14.10;;;13.52;;
30080;SDS011;16902;50.816;12.828;2023-07-31T19:22:16;14.30;;;13.70;;
30080;SDS011;16902;50.816;12.828;2023-07-31T19:27:18;13.88;;;13.38;;
30080;SDS011;16902;50.816;12.828;2023-07-31T19:32:19;14.23;;;13.63;;
30080;SDS011;16902;50.816;12.828;2023-07-31T19:37:21;13.75;;;13.23;;
30080;SDS011;16902;50.816;12.828;2023-07-31T19:42:23;14.27;;;13.57;;
30080;SDS011;16902;50.816;12.828;2023-07-31T19:47:25;13.95;;;13.45;;
30080;SDS011;16902;50.816;12.828;2023-07-31T19:52:27;13.60;;;13.02;;
30080;SDS011;16902;50.816;12.828;2023-07-31T19:57:29;13.73;;;13.02;;
30080;SDS011;16902;50.816;12.828;2023-07-31T20:02:31;13.48;;;12.98;;
30080;SDS011;16902;50.816;12.828;2023-07-31T20:07:33;12.75;;;12.25;;
30080;SDS011;16902;50.816;12.828;2023-07-31T20:12:35;13.68;;;13.07;;
30080;SDS011;16902;50.816;12.828;2023-07-31T20:17:38;13.52;;;12.93;;
30080;SDS011;16902;50.816;12.828;2023-07-31T20:22:40;13.73;;;13.13;;
30080;SDS011;16902;50.816;12.828;2023-07-31T20:27:42;13.63;;;13.02;;
30080;SDS011;16902;50.816;12.828;2023-07-31T20:32:44;13.60;;;13.00;;
30080;SDS011;16902;50.816;12.828;2023-07-31T20:37:46;13.27;;;12.75;;
30080;SDS011;16902;50.816;12.828;2023-07-31T20:42:54;13.38;;;12.85;;
30080;SDS011;16902;50.816;12.828;2023-07-31T20:47:57;13.35;;;12.85;;
30080;SDS011;16902;50.816;12.828;2023-07-31T20:53:01;13.32;;;12.82;;
30080;SDS011;16902;50.816;12.828;2023-07-31T20:58:03;13.43;;;12.82;;
30080;SDS011;16902;50.816;12.828;2023-07-31T21:03:05;12.80;;;12.10;;
30080;SDS011;16902;50.816;12.828;2023-07-31T21:08:07;13.25;;;12.65;;
30080;SDS011;16902;50.816;12.828;2023-07-31T21:13:09;13.35;;;12.75;;
30080;SDS011;16902;50.816;12.828;2023-07-31T21:18:12;13.05;;;12.55;;
30080;SDS011;16902;50.816;12.828;2023-07-31T21:23:14;12.52;;;12.02;;
30080;SDS011;16902;50.816;12.828;2023-07-31T21:28:16;12.10;;;11.60;;
30080;SDS011;16902;50.816;12.828;2023-07-31T21:33:18;12.23;;;11.73;;
30080;SDS011;16902;50.816;12.828;2023-07-31T21:38:20;12.30;;;11.80;;
30080;SDS011;16902;50.816;12.828;2023-07-31T21:43:21;12.10;;;11.60;;
30080;SDS011;16902;50.816;12.828;2023-07-31T21:48:23;12.00;;;11.50;;
30080;SDS011;16902;50.816;12.828;2023-07-31T21:53:25;11.60;;;11.10;;
30080;SDS011;16902;50.816;12.828;2023-07-31T21:58:27;11.10;;;10.60;;
30080;SDS011;16902;50.816;12.828;2023-07-31T22:03:29;10.30;;;9.90;;
30080;SDS011;16902;50.816;12.828;2023-07-31T22:08:31;9.80;;;9.40;;
30080;SDS011;16902;50.816;12.828;2023-07-31T22:13:33;9.10;;;8.70;;
30080;SDS011;16902;50.816;12.828;2023-07-31T22:18:35;8.30;;;7.93;;
30080;SDS011;16902;50.816;12.828;2023-07-31T22:23:37;7.38;;;7.00;;
30080;SDS011;16902;50.816;12.828;2023-07-31T22:28:39;7.90;;;7.30;;
30080;SDS011;16902;50.816;12.828;2023-07-31T22:33:41;6.93;;;6.60;;
30080;SDS011;16902;50.816;12.828;2023-07-31T22:38:43;6.60;;;6.30;;
30080;SDS011;16902;50.816;12.828;2023-07-31T22:43:45;6.18;;;5.88;;
30080;SDS011;16902;50.816;12.828;2023-07-31T22:48:46;5.32;;;5.05;;
30080;SDS011;16902;50.816;12.828;2023-07-31T22:53:48;5.57;;;5.28;;
30080;SDS011;16902;50.816;12.828;2023-07-31T22:58:50;5.72;;;5.22;;
30080;SDS011;16902;50.816;12.828;2023-07-31T23:03:52;5.00;;;4.80;;
30080;SDS011;16902;50.816;12.828;2023-07-31T23:08:54;4.60;;;4.40;;
30080;SDS011;16902;50.816;12.828;2023-07-31T23:13:56;5.13;;;4.93;;
30080;SDS011;16902;50.816;12.828;2023-07-31T23:18:58;4.97;;;4.78;;
30080;SDS011;16902;50.816;12.828;2023-07-31T23:24:00;5.35;;;5.15;;
30080;SDS011;16902;50.816;12.828;2023-07-31T23:29:02;4.85;;;4.65;;
30080;SDS011;16902;50.816;12.828;2023-07-31T23:34:04;4.28;;;4.07;;
30080;SDS011;16902;50.816;12.828;2023-07-31T23:39:06;4.47;;;4.30;;
30080;SDS011;16902;50.816;12.828;2023-07-31T23:44:07;4.97;;;4.68;;
30080;SDS011;16902;50.816;12.828;2023-07-31T23:49:09;4.60;;;4.30;;
30080;SDS011;16902;50.816;12.828;2023-07-31T23:54:11;3.80;;;3.70;;
30080;SDS011;16902;50.816;12.828;2023-07-31T23:59:13;3.95;;;3.75;;
